createdAt,value
2023-02-19T00:01:24.428Z,74.98
2023-02-19T00:06:17.241Z,74.82
2023-02-19T00:11:13.951Z,74.86
2023-02-19T00:16:20.794Z,74.99
2023-02-19T00:21:17.200Z,74.77
2023-02-19T00:26:18.604Z,74.78
2023-02-19T00:31:24.362Z,74.66
2023-02-19T00:36:18.594Z,74.53
2023-02-19T00:41:21.923Z,74.50
2023-02-19T00:46:15.225Z,74.57
2023-02-19T00:51:08.303Z,74.35
2023-02-19T00:56:01.376Z,74.05
2023-02-19T01:00:54.493Z,74.02
2023-02-19T01:05:47.723Z,73.88
2023-02-19T01:10:41.176Z,73.82
2023-02-19T01:15:35.156Z,73.73
2023-02-19T01:20:28.833Z,73.99
2023-02-19T01:25:21.702Z,73.82
2023-02-19T01:30:14.901Z,73.79
2023-02-19T01:35:07.962Z,73.46
2023-02-19T01:40:00.748Z,73.72
2023-02-19T01:45:20.159Z,73.47
2023-02-19T01:50:13.110Z,73.22
2023-02-19T01:55:09.900Z,73.05
2023-02-19T02:00:13.222Z,73.10
2023-02-19T02:05:14.749Z,73.06
2023-02-19T02:10:21.390Z,73.31
2023-02-19T02:15:16.437Z,73.00
2023-02-19T02:20:27.741Z,73.03
2023-02-19T02:25:50.388Z,72.91
2023-02-19T02:30:58.814Z,72.79
2023-02-19T02:35:54.177Z,72.83
2023-02-19T02:40:49.321Z,72.89
2023-02-19T02:45:43.176Z,72.82
2023-02-19T02:51:24.197Z,72.95
2023-02-19T02:56:31.431Z,73.14
2023-02-19T03:02:12.089Z,73.38
2023-02-19T03:07:10.571Z,73.91
2023-02-19T03:12:24.228Z,73.77
2023-02-19T03:17:45.439Z,73.70
2023-02-19T03:22:40.011Z,73.89
2023-02-19T03:27:36.465Z,74.14
2023-02-19T03:32:35.539Z,74.01
2023-02-19T03:37:34.335Z,73.93
2023-02-19T03:42:45.486Z,74.05
2023-02-19T03:47:59.252Z,73.97
2023-02-19T03:52:57.171Z,74.08
2023-02-19T03:58:17.818Z,74.11
2023-02-19T04:03:28.016Z,73.92
2023-02-19T04:08:24.743Z,73.86
2023-02-19T04:13:30.682Z,73.77
2023-02-19T04:18:29.825Z,73.92
2023-02-19T04:23:26.818Z,73.85
2023-02-19T04:28:19.783Z,73.91
2023-02-19T04:33:12.526Z,73.66
2023-02-19T04:38:05.328Z,73.82
2023-02-19T04:42:58.113Z,73.77
2023-02-19T04:47:50.934Z,73.90
2023-02-19T04:52:43.690Z,73.96
2023-02-19T04:57:37.001Z,73.95
2023-02-19T05:02:29.772Z,73.84
2023-02-19T05:07:22.575Z,73.80
2023-02-19T05:12:15.343Z,73.88
2023-02-19T05:17:08.149Z,73.92
2023-02-19T05:22:00.918Z,73.75
2023-02-19T05:26:53.679Z,73.89
2023-02-19T05:31:47.724Z,73.84
2023-02-19T05:36:40.742Z,73.79
2023-02-19T05:41:33.628Z,74.10
2023-02-19T05:46:29.767Z,73.93
2023-02-19T05:51:24.783Z,74.07
2023-02-19T05:56:32.591Z,74.17
2023-02-19T06:01:28.336Z,74.21
2023-02-19T06:06:21.950Z,74.24
2023-02-19T06:11:14.757Z,74.05
2023-02-19T06:16:09.423Z,74.27
2023-02-19T06:21:03.855Z,74.27
2023-02-19T06:25:57.089Z,74.45
2023-02-19T06:30:51.917Z,74.30
2023-02-19T06:35:44.714Z,74.33
2023-02-19T06:40:37.827Z,74.28
2023-02-19T06:45:30.588Z,74.15
2023-02-19T06:50:23.378Z,74.08
2023-02-19T06:55:16.301Z,73.78
2023-02-19T07:00:10.162Z,73.83
2023-02-19T07:05:03.347Z,73.63
2023-02-19T07:09:56.121Z,73.52
2023-02-19T07:14:49.007Z,73.31
2023-02-19T07:19:41.799Z,73.42
2023-02-19T07:24:34.616Z,73.45
2023-02-19T07:29:27.437Z,73.17
2023-02-19T07:34:22.446Z,73.17
2023-02-19T07:39:16.272Z,73.21
2023-02-19T07:44:09.109Z,72.90
2023-02-19T07:49:01.917Z,73.09
2023-02-19T07:53:54.695Z,73.08
2023-02-19T07:58:47.519Z,72.76
2023-02-19T08:03:40.790Z,72.63
2023-02-19T08:08:33.659Z,72.78
2023-02-19T08:13:28.350Z,72.49
2023-02-19T08:18:25.124Z,72.34
2023-02-19T08:23:18.435Z,72.02
2023-02-19T08:28:15.361Z,71.97
2023-02-19T08:33:09.570Z,71.99
2023-02-19T08:38:02.557Z,71.73
2023-02-19T08:42:55.335Z,71.84
2023-02-19T08:47:48.431Z,71.82
2023-02-19T08:52:41.222Z,71.84
2023-02-19T08:57:38.763Z,71.75
2023-02-19T09:02:31.613Z,71.74
2023-02-19T09:07:24.418Z,71.87
2023-02-19T09:12:17.204Z,71.94
2023-02-19T09:17:10.496Z,71.84
2023-02-19T09:22:04.577Z,71.90
2023-02-19T09:27:00.302Z,71.94
2023-02-19T09:31:56.731Z,71.63
2023-02-19T09:36:52.873Z,71.46
2023-02-19T09:41:49.848Z,70.98
2023-02-19T09:46:49.032Z,70.64
2023-02-19T09:51:48.544Z,70.48
2023-02-19T09:56:41.432Z,70.04
2023-02-19T10:01:38.996Z,69.57
2023-02-19T10:06:38.166Z,69.33
2023-02-19T10:11:30.971Z,69.48
2023-02-19T10:16:29.274Z,69.52
2023-02-19T10:21:27.601Z,68.92
2023-02-19T10:26:20.959Z,68.63
2023-02-19T10:31:25.289Z,67.08
2023-02-19T10:36:40.934Z,65.02
2023-02-19T10:41:33.836Z,63.67
2023-02-19T10:46:34.408Z,63.61
2023-02-19T10:51:42.397Z,64.01
2023-02-19T10:56:35.334Z,64.51
2023-02-19T11:01:28.169Z,64.68
2023-02-19T11:06:28.135Z,65.19
2023-02-19T11:11:29.688Z,64.96
2023-02-19T11:16:22.810Z,64.48
2023-02-19T11:21:33.276Z,62.89
2023-02-19T11:26:29.051Z,62.01
2023-02-19T11:31:27.627Z,62.38
2023-02-19T11:36:30.032Z,62.25
2023-02-19T11:41:45.892Z,62.73
2023-02-19T11:47:25.648Z,62.55
2023-02-19T11:52:28.141Z,62.73
2023-02-19T11:57:43.323Z,62.83
2023-02-19T12:03:00.149Z,62.68
2023-02-19T12:08:11.555Z,62.25
2023-02-19T12:13:27.038Z,61.97
2023-02-19T12:18:34.693Z,61.45
2023-02-19T12:24:05.511Z,61.18
2023-02-19T12:29:07.375Z,60.82
2023-02-19T12:34:17.369Z,60.90
2023-02-19T12:39:23.045Z,60.42
2023-02-19T12:44:30.839Z,60.52
2023-02-19T12:49:29.707Z,61.08
2023-02-19T12:54:34.365Z,61.45
2023-02-19T12:59:45.920Z,61.98
2023-02-19T13:05:03.515Z,62.57
2023-02-19T13:10:05.000Z,62.90
2023-02-19T13:15:18.896Z,63.30
2023-02-19T13:20:33.633Z,63.24
2023-02-19T13:25:44.656Z,62.52
2023-02-19T13:30:43.437Z,61.90
2023-02-19T13:36:12.996Z,60.27
2023-02-19T13:41:06.079Z,60.18
2023-02-19T13:46:02.500Z,59.99
2023-02-19T13:51:13.806Z,59.02
2023-02-19T13:56:34.244Z,58.70
2023-02-19T14:01:49.194Z,58.74
2023-02-19T14:07:04.153Z,59.33
2023-02-19T14:12:06.515Z,59.80
2023-02-19T14:17:09.252Z,60.24
2023-02-19T14:22:02.082Z,60.39
2023-02-19T14:26:58.299Z,60.20
2023-02-19T14:31:51.165Z,60.20
2023-02-19T14:36:53.602Z,60.13
2023-02-19T14:41:50.995Z,59.98
2023-02-19T14:47:09.174Z,59.76
2023-02-19T14:52:08.111Z,59.74
2023-02-19T14:57:04.008Z,59.58
2023-02-19T15:02:21.174Z,59.55
2023-02-19T15:07:24.738Z,59.60
2023-02-19T15:12:22.932Z,59.95
2023-02-19T15:17:31.156Z,60.09
2023-02-19T15:22:28.581Z,59.74
2023-02-19T15:27:36.277Z,59.83
2023-02-19T15:32:39.777Z,59.97
2023-02-19T15:37:48.622Z,60.31
2023-02-19T15:42:50.919Z,60.46
2023-02-19T15:48:02.172Z,60.86
2023-02-19T15:53:00.617Z,60.89
2023-02-19T15:58:09.719Z,61.16
2023-02-19T16:03:03.240Z,61.35
2023-02-19T16:08:41.039Z,61.23
2023-02-19T16:13:38.642Z,61.24
2023-02-19T16:18:30.704Z,61.68
2023-02-19T16:23:24.977Z,61.71
2023-02-19T16:28:24.815Z,61.87
2023-02-19T16:33:22.208Z,62.23
2023-02-19T16:38:18.337Z,62.36
2023-02-19T16:43:16.545Z,62.38
2023-02-19T16:48:09.449Z,62.47
2023-02-19T16:53:03.239Z,62.78
2023-02-19T16:57:54.963Z,63.05
2023-02-19T17:02:49.301Z,63.34
2023-02-19T17:07:40.716Z,63.56
2023-02-19T17:12:32.229Z,63.17
2023-02-19T17:17:40.680Z,63.14
2023-02-19T17:22:32.359Z,63.12
2023-02-19T17:27:23.818Z,63.04
2023-02-19T17:32:29.660Z,63.17
2023-02-19T17:37:40.451Z,62.97
2023-02-19T17:42:37.033Z,62.55
2023-02-19T17:47:28.512Z,62.38
2023-02-19T17:52:31.071Z,61.98
2023-02-19T17:57:22.780Z,62.25
2023-02-19T18:02:16.726Z,61.70
2023-02-19T18:07:08.349Z,61.79
2023-02-19T18:11:59.773Z,61.78
2023-02-19T18:17:26.775Z,61.69
2023-02-19T18:22:36.252Z,61.29
2023-02-19T18:28:01.792Z,61.24
2023-02-19T18:33:30.381Z,61.19
2023-02-19T18:38:24.383Z,61.16
2023-02-19T18:43:15.924Z,61.09
2023-02-19T18:48:19.893Z,61.06
2023-02-19T18:53:16.861Z,60.78
2023-02-19T18:58:08.575Z,61.09
2023-02-19T19:03:12.913Z,60.94
2023-02-19T19:08:18.317Z,61.04
2023-02-19T19:13:12.091Z,60.93
2023-02-19T19:18:05.242Z,61.04
2023-02-19T19:22:59.650Z,61.03
2023-02-19T19:27:54.780Z,61.03
2023-02-19T19:32:50.207Z,61.23
2023-02-19T19:37:41.625Z,61.42
2023-02-19T19:42:33.023Z,61.28
2023-02-19T19:47:24.994Z,61.23
2023-02-19T19:52:16.405Z,61.13
2023-02-19T19:57:07.834Z,61.30
2023-02-19T20:02:02.069Z,61.52
2023-02-19T20:06:53.605Z,61.66
2023-02-19T20:11:50.331Z,61.16
2023-02-19T20:16:46.875Z,61.89
2023-02-19T20:21:38.395Z,61.66
2023-02-19T20:26:31.487Z,61.53
2023-02-19T20:31:25.653Z,61.56
2023-02-19T20:36:20.255Z,61.75
2023-02-19T20:41:12.443Z,61.56
2023-02-19T20:46:04.277Z,61.45
2023-02-19T20:51:26.088Z,61.88
2023-02-19T20:56:17.555Z,61.41
2023-02-19T21:01:11.240Z,61.50
2023-02-19T21:06:02.757Z,61.83
2023-02-19T21:10:55.685Z,61.82
2023-02-19T21:15:49.984Z,62.01
2023-02-19T21:20:41.417Z,62.15
2023-02-19T21:25:33.279Z,62.27
2023-02-19T21:30:24.994Z,62.36
2023-02-19T21:35:16.531Z,62.40
2023-02-19T21:40:18.710Z,62.37
2023-02-19T21:45:10.358Z,62.49
2023-02-19T21:50:02.111Z,62.80
2023-02-19T21:55:00.738Z,63.06
2023-02-19T21:59:52.245Z,62.83
2023-02-19T22:04:43.631Z,63.05
2023-02-19T22:09:35.023Z,63.35
2023-02-19T22:14:26.452Z,63.49
2023-02-19T22:19:17.876Z,63.36
2023-02-19T22:24:20.901Z,63.74
2023-02-19T22:29:14.675Z,63.59
2023-02-19T22:34:09.970Z,64.21
2023-02-19T22:39:01.727Z,64.11
2023-02-19T22:43:58.314Z,64.07
2023-02-19T22:48:50.081Z,64.36
2023-02-19T22:53:50.462Z,64.46
2023-02-19T22:58:42.678Z,64.76
2023-02-19T23:03:34.126Z,64.99
2023-02-19T23:08:25.523Z,65.20
2023-02-19T23:13:17.026Z,65.36
2023-02-19T23:18:08.497Z,65.39
2023-02-19T23:23:00.814Z,65.58
2023-02-19T23:28:06.296Z,65.37
2023-02-19T23:32:57.743Z,65.64
2023-02-19T23:37:49.386Z,65.71
2023-02-19T23:42:40.940Z,65.91
2023-02-19T23:47:32.362Z,66.08
2023-02-19T23:52:24.129Z,66.25
2023-02-19T23:57:16.026Z,67.36
